• Join FlightAware (Why Join?)
  • Login
  • US Flag 
10:03PM EDT


 

Airport Tracker/Info


-or-


 

Live Flight TrackerFlight Track Log ✈ USC105 ✈ 09-Apr-2013 ✈ KBKL - KYIP

Flight Track Log - Related Links

Times and Time Zones

All times are in EDT time to prevent confusion due to time zone crossing. See the USC105 flight status page for this flight to view local times or setup timezone preferences in your user account.

Time Position Orientation Groundspeed Altitude Reporting Facility
EDT Latitude Longitude Course Direction KTS MPH feet Rate Location/Type
11:04PM 41.5331 -81.7231 314° West 98 113 2,000  Level Cleveland Center
11:05PM 41.5475 -81.7594 298° West 125 144 2,600 480 Climbing Cleveland Center
11:06PM 41.5636 -81.8014 297° West 134 154 3,000 360 Climbing Cleveland Center
11:07PM 41.5819 -81.8461 299° West 134 154 3,400 360 Climbing Cleveland Center
11:08PM 41.6003 -81.8908 299° West 131 151 3,800 300 Climbing Cleveland Center
11:09PM 41.6142 -81.9383 291° West 133 153 4,100 240 Climbing Cleveland Center
11:10PM 41.6283 -81.9861 292° West 135 155 4,400 420 Climbing Cleveland Center
11:11PM 41.6422 -82.0308 293° West 128 147 5,000 480 Climbing Cleveland Center
11:12PM 41.6564 -82.0728 294° West 128 147 5,500 420 Climbing Cleveland Center
11:13PM 41.6703 -82.1203 291° West 132 152 5,900 480 Climbing Cleveland Center
11:14PM 41.6864 -82.1653 296° West 130 150 6,500 540 Climbing Cleveland Center
11:15PM 41.7003 -82.2044 295° West 127 146 7,100 540 Climbing Cleveland Center
11:16PM 41.7183 -82.2550 296° West 128 147 7,700 360 Climbing Cleveland Center
11:17PM 41.7303 -82.2997 290° West 129 148 7,900 120 Climbing Cleveland Center
11:18PM 41.7461 -82.3531 292° West 151 174 8,000  Climbing Cleveland Center
11:19PM 41.7644 -82.3869 306° West 157 181 7,900 -120 Descending Cleveland Center
11:19PM 41.7783 -82.4264 295° West 159 183 7,900  Level Cleveland Center
11:20PM 41.7942 -82.4769 293° West 158 182 7,900  Level Cleveland Center
11:21PM 41.8119 -82.5306 294° West 158 182 7,900  Level Cleveland Center
11:22PM 41.8339 -82.5925 295° West 157 181 7,900  Level Cleveland Center
11:23PM 41.8539 -82.6433 298° West 158 182 7,900  Level Cleveland Center
11:25PM 41.8756 -82.7053 295° West 158 182 7,900  Level Cleveland Center
11:26PM 41.8978 -82.7564 300° West 159 183 7,900  Level Cleveland Center
11:27PM 41.9281 -82.8019 312° West 164 189 7,900  Level Cleveland Center
11:28PM 41.9603 -82.8561 309° West 162 186 7,900  Level Cleveland Center
11:29PM 41.9886 -82.8992 312° West 161 185 7,900  Level Cleveland Center
11:30PM 42.0128 -82.9447 306° West 163 188 7,900  Level Cleveland Center
11:31PM 42.0408 -82.9933 308° West 163 188 7,900  Level Cleveland Center
11:32PM 42.0628 -83.0444 300° West 156 180 7,900 -60 Level Cleveland Center
11:32PM 42.0786 -83.0869 297° West 156 180 7,800 -360 Descending Cleveland Center
11:33PM 42.1003 -83.1383 300° West 165 190 7,300 -720 Descending Cleveland Center
11:34PM 42.1219 -83.2008 295° West 177 204 6,400 -900 Descending Cleveland Center
11:35PM 42.1456 -83.2606 298° West 178 205 5,600 -780 Descending Cleveland Center
11:36PM 42.1672 -83.3147 298° West 174 200 4,900 -420 Descending Cleveland Center
11:37PM 42.1742 -83.3653 281° West 142 163 4,900 -660 Level Cleveland Center
11:38PM 42.1789 -83.4300 276° West 171 197 3,700 -1,200 Descending Cleveland Center
11:39PM 42.1961 -83.4925 290° West 197 227 2,500 -1,140 Descending Cleveland Center
11:40PM 42.2072 -83.5519 284° West 145 167 1,500 -1,020 Descending Cleveland Center
11:42PM 42.2333 -83.5167 270° West  Level FlightAware Approximate
11:49PM 42.2393 -83.5310 270° West  Level Estimated
11:50PM 42.2393 -83.5310 270° West  Level Estimated